Close

Questo sito utlizza cookie. Può leggere come li usiamo nella nostra Privacy Policy.

Ronchi Tower
Ronchi Tower

News

Posted by Fabio Davanzo - 09 Feb 2017
Views: 49

Iniziamo subito dalla notizia uscita un paio di giorni fa e cioè che Ryanair collegherà il Trieste Airport a Roma Ciampino con un quadrisettimanale a partire dal 26 marzo.

Tale volo verrà operato ovviamente con un B737/800 nei giorni di Lunedi, Mercoledi, Venerdi e Domenica con prezzi a partire da 19,99 euro a tratta.

Questa nuova tratta segue altre a carattere stagionale di seguito riportate:

...

From Facebook

METAR & TAF

2017/02/28 00:50 LIPQ 280050Z AUTO VRB01KT 9999 SCT013/// SCT047/// BKN059/// 07/06 Q1013
2017/02/27 18:24 TAF LIPQ 271700Z 2718/2818 VRB06KT 8000 FEW040 BECMG 2810/2812 18013KT TEMPO 2813/2818 18018G28KT RA
2017/02/28 00:50 LIPZ 280050Z 07005KT 9999 BKN050 08/07 Q1013 NOSIG
2017/02/27 18:24 TAF LIPZ 271700Z 2718/2824 VRB05KT 9999 SCT020 TEMPO 2722/2802 4000 BR BECMG 2809/2812 18012KT TEMPO 2815/2824 18015G25KT RA
2017/02/28 00:50 LIPH 280050Z AUTO 08003KT 050V110 9999 BKN047/// OVC085/// 08/05 Q1012
2017/02/27 18:24 TAF LIPH 271700Z 2718/2818 VRB05KT 7000 SCT020 TEMPO 2800/2808 2500 BR BKN004 TEMPO 2812/2818 RA
2017/02/28 00:50 LIRF 280050Z 08004KT CAVOK 06/04 Q1017 NOSIG
2017/02/27 18:24 TAF LIRF 271700Z 2718/2824 14008KT 9999 FEW020 BECMG 2807/2809 22018KT
2017/02/28 00:50 LIML 280050Z 06005KT 020V090 4000 RA BR BKN025 07/06 Q1011 NOSIG
2017/02/27 18:24 TAF TAF LIML 271700Z 2718/2818 10007KT 9999 BKN012 BKN050 TEMPO 2719/2807 RA
2017/02/28 00:50 EDDM 280050Z 14002KT CAVOK M01/M02 Q0999 NOSIG
2017/02/27 18:27 TAF EDDM 271700Z 2718/2824 12005KT CAVOK BECMG 2719/2723 21005KT BECMG 2804/2806 26015G25KT RA BKN013 BECMG 2809/2811 24010KT NSW FEW015 BKN030 BECMG 2812/2814 12005KT BECMG 2815/2817 27020G30KT RA BKN013 BECMG 2820/2822 25012KT NSW FEW015 BKN030 PROB30 TEMPO 2822/2824 2500 SHSNRA BKN008TCU
2017/02/28 00:50 EGSS 280050Z AUTO 22009KT 9999 NCD 01/01 Q0983
2017/02/27 18:15 TAF EGSS 271655Z 2718/2824 20014KT 9999 SCT020 TEMPO 2718/2809 6000 SHRA BKN010 PROB30 TEMPO 2719/2809 4000 SHRASN BKN005 BKN014CB BECMG 2806/2809 28010KT PROB40 TEMPO 2815/2824 28015G25KT 4000 SHRA BKN010

FlightRadar24

Radar Meteo

Traffic data

Gennaio 2017

Passeggeri: 50960+15,5% (rank: 23)
Nazionali 33946 +21,0% 22°
Internazionali 16911 +6,2% 20°

Movimenti: 1275+17,0% (rank: 18)
Tot commerciale 668 +14,4% 21°
Aviazione generale 607 +20,0%

Cargo (tons): 37-10,2% (rank: 19)

Gennaio - Gennaio 2017

Passeggeri: 50960+15,5% (rank: 23)
Nazionali 33946 +21,0% 22°
Internazionali 16911 +6,2% 20°

Movimenti: 1275+17,0% (rank: 18)
Tot commerciale 668 +14,4% 21°
Aviazione generale 607 +20,0%

Cargo (tons): 37-10,2% (rank: 19)

Photo

Polo Intermodale
Polo Intermodale
Distinct views: 4
Polo Intermodale
Polo Intermodale
Distinct views: 12
Boeing 737-300
Boeing 737-300
Distinct views: 33
Airbus A320
Airbus A320
Total views: 279